KHNZ

Henderson-Oxford Airport

Oxford, North Carolina, USA
METAR KHNZ 171805Z AUTO 29006KT 10SM CLR 17/03 A3012 RMK AO2 T01700029
Observed Flight Rules
Oct-17 @ 18:05 UTC (28 minutes ago) Visual Flight Rules
Wind Visibility Clouds
290° at 6 knots 10 miles
  • Clear skies
Temperatures Readings
Current 17°C / 63°F
Dewpoint 3°C / 37°F
Humidity 39%
Altimeter 30.12" Hg
Pressure 1020 hPa
Elevation 161
METAR KHNZ 171805Z AUTO 29006KT 10SM CLR 17/03 A3012 RMK AO2 T01700029
Observed Flight Rules
Oct-17 @ 18:05 UTC
(28 minutes ago)
VFR
Wind Visibility
290° at 6 knots 10 miles
Clouds
  • Clear skies
Temperature Dewpoint
17°C / 63°F 3°C / 37°F
Humidity Altimeter Pressure
39% 30.12" Hg 1020 hPa